Time;durP1;ratioP1;P1;durP2;ratioP2;P2;SDS_P1;SDS_P2;PMS_P1;PMS_P2;Temp;Humidity;BMP_temperature;BMP_pressure;BME280_temperature;BME280_humidity;BME280_pressure;Samples;Min_cycle;Max_cycle;Signal;HPM_P1;HPM_P2
2022/04/10 00:01:47;;;;;;;8.05;1.35;;;;;;;5.14;92.17;101798.22;5109486;28;20048;-32
2022/04/10 00:04:18;;;;;;;5.47;1.20;;;;;;;5.15;91.43;101797.13;5110569;28;20044;-28
2022/04/10 00:06:45;;;;;;;6.00;1.40;;;;;;;5.18;90.98;101804.09;5110275;28;20036;-32
2022/04/10 00:09:14;;;;;;;8.23;1.23;;;;;;;5.21;91.52;101800.84;5109563;28;20043;-23
2022/04/10 00:11:42;;;;;;;6.75;1.63;;;;;;;5.25;91.52;101803.97;5110299;28;20036;-27
2022/04/10 00:14:10;;;;;;;8.77;1.33;;;;;;;5.26;91.55;101803.72;5109934;28;20061;-26
2022/04/10 00:16:39;;;;;;;9.52;1.55;;;;;;;5.28;91.64;101796.03;5109255;28;20047;-27
2022/04/10 00:19:06;;;;;;;9.15;1.05;;;;;;;5.32;92.09;101799.16;5109077;28;20502;-29
2022/04/10 00:21:34;;;;;;;10.52;1.63;;;;;;;5.31;92.08;101792.78;5108107;28;20044;-28
2022/04/10 00:24:03;;;;;;;9.02;1.38;;;;;;;5.30;92.59;101796.63;5107353;28;20130;-27
2022/04/10 00:26:31;;;;;;;8.25;1.10;;;;;;;5.29;93.05;101799.66;5108092;28;20055;-28
2022/04/10 00:28:59;;;;;;;7.72;1.20;;;;;;;5.27;93.31;101791.59;5097006;28;20063;-34
2022/04/10 00:31:26;;;;;;;7.25;1.10;;;;;;;5.27;93.62;101787.97;5107832;28;20070;-27
2022/04/10 00:33:56;;;;;;;6.32;1.30;;;;;;;5.26;93.65;101786.28;5108441;28;20427;-30
2022/04/10 00:36:24;;;;;;;8.50;1.70;;;;;;;5.25;94.49;101788.22;5111530;28;20048;-23
2022/04/10 00:38:52;;;;;;;9.05;1.40;;;;;;;5.28;94.76;101786.88;5113200;28;20055;-24
2022/04/10 00:41:19;;;;;;;12.13;1.42;;;;;;;5.27;95.06;101788.81;5113775;28;20072;-29
2022/04/10 00:44:05;;;;;;;9.57;1.33;;;;;;;5.24;93.94;101780.16;5111993;28;20429;-29
2022/04/10 00:46:33;;;;;;;6.38;1.40;;;;;;;5.21;93.79;101787.00;5111443;28;20058;-30
2022/04/10 00:49:03;;;;;;;8.60;1.23;;;;;;;5.20;93.81;101780.63;5113102;28;20043;-26
2022/04/10 00:51:41;;;;;;;8.35;1.85;;;;;;;5.20;93.74;101777.84;5111640;28;20556;-27
2022/04/10 00:54:10;;;;;;;7.75;1.25;;;;;;;5.18;93.76;101777.28;5111979;28;20487;-29
2022/04/10 00:56:38;;;;;;;7.30;1.15;;;;;;;5.19;93.59;101775.38;5112237;28;20046;-27
2022/04/10 00:59:07;;;;;;;10.63;1.40;;;;;;;5.19;94.34;101767.91;5111371;28;20048;-29
2022/04/10 01:01:36;;;;;;;8.20;1.33;;;;;;;5.18;94.77;101774.53;5113102;28;20063;-29
2022/04/10 01:04:25;;;;;;;7.40;1.40;;;;;;;5.15;95.19;101775.00;5113194;28;20468;-29
2022/04/10 01:06:54;;;;;;;6.75;1.27;;;;;;;5.14;95.61;101767.78;5111430;28;20079;-28
2022/04/10 01:09:22;;;;;;;10.90;1.45;;;;;;;5.13;96.20;101779.09;5112004;28;20093;-28
2022/04/10 01:11:50;;;;;;;9.90;1.30;;;;;;;5.12;96.36;101782.94;5111919;28;20135;-26
2022/04/10 01:14:18;;;;;;;6.68;1.20;;;;;;;5.09;96.87;101775.94;5111046;28;20505;-32
2022/04/10 01:16:46;;;;;;;7.88;1.63;;;;;;;5.08;97.23;101777.03;5112911;28;20082;-32
2022/04/10 01:19:17;;;;;;;8.02;1.10;;;;;;;5.08;97.58;101788.09;5111168;28;20096;-27
2022/04/10 01:21:51;;;;;;;6.43;1.13;;;;;;;5.05;97.60;101791.34;5111778;28;20131;-32
2022/04/10 01:24:20;;;;;;;;;;;;;;;4.99;97.20;101795.09;5112087;28;20100;-25
2022/04/10 01:26:48;;;;;;;6.57;1.10;;;;;;;4.94;97.42;101788.56;5110898;28;20232;-30
2022/04/10 01:29:20;;;;;;;;;;;;;;;4.92;97.12;101797.13;5111974;28;20165;-28
2022/04/10 01:31:48;;;;;;;6.70;1.27;;;;;;;4.92;97.67;101794.34;5111260;28;19973;-28
2022/04/10 01:34:17;;;;;;;10.50;1.13;;;;;;;4.96;97.95;101794.72;5110758;28;20401;-30
2022/04/10 01:36:46;;;;;;;10.07;1.48;;;;;;;4.97;98.10;101797.25;5112772;28;20043;-28
2022/04/10 01:39:16;;;;;;;9.50;1.42;;;;;;;4.98;98.39;101798.09;5112664;28;20113;-35
2022/04/10 01:41:46;;;;;;;10.65;1.45;;;;;;;4.99;98.98;101797.84;5110245;28;20046;-29
2022/04/10 01:44:15;;;;;;;11.13;1.50;;;;;;;5.02;99.00;101807.56;5111453;28;20396;-33
2022/04/10 01:46:43;;;;;;;8.88;1.48;;;;;;;5.04;99.09;101803.47;5110683;28;20093;-25
2022/04/10 01:49:12;;;;;;;6.45;1.08;;;;;;;5.08;98.67;101804.69;5109986;28;20085;-29
2022/04/10 01:51:40;;;;;;;6.40;1.45;;;;;;;5.10;98.45;101798.94;5112309;28;20039;-29
2022/04/10 01:54:08;;;;;;;6.80;1.35;;;;;;;5.12;98.03;101800.38;5112350;28;20083;-25
2022/04/10 01:56:36;;;;;;;7.53;1.50;;;;;;;5.14;97.66;101806.50;5110138;28;20036;-26
2022/04/10 01:59:07;;;;;;;9.73;1.40;;;;;;;5.19;97.27;101808.56;5110925;28;20408;-26
2022/04/10 02:01:35;;;;;;;9.75;1.75;;;;;;;5.20;96.87;101813.81;5110062;28;20368;-27
2022/04/10 02:04:04;;;;;;;6.85;1.00;;;;;;;5.21;96.27;101811.91;5112299;28;20052;-27
2022/04/10 02:06:32;;;;;;;8.23;1.40;;;;;;;5.25;96.53;101813.13;5110961;28;20075;-30
2022/04/10 02:09:00;;;;;;;4.75;0.98;;;;;;;5.30;96.83;101812.41;5110354;28;20066;-27
2022/04/10 02:11:28;;;;;;;8.65;1.10;;;;;;;5.36;97.13;101815.06;5110583;28;20134;-23
2022/04/10 02:14:00;;;;;;;7.90;1.27;;;;;;;5.40;97.42;101807.09;5110873;28;20138;-28
2022/04/10 02:16:30;;;;;;;5.72;1.52;;;;;;;5.44;97.00;101813.81;5109879;28;20079;-31
2022/04/10 02:18:58;;;;;;;8.32;1.33;;;;;;;5.47;97.31;101807.81;5110554;28;20108;-25
2022/04/10 02:21:26;;;;;;;11.38;1.20;;;;;;;5.51;97.45;101800.72;5111820;28;20069;-27
2022/04/10 02:23:54;;;;;;;8.73;1.33;;;;;;;5.52;97.12;101807.94;5109863;28;20074;-26
2022/04/10 02:26:21;;;;;;;8.63;1.58;;;;;;;5.51;96.67;101812.63;5104503;28;20453;-24
2022/04/10 02:28:49;;;;;;;7.53;1.10;;;;;;;5.53;96.75;101807.69;5112105;28;20139;-29
2022/04/10 02:31:17;;;;;;;8.80;1.40;;;;;;;5.53;96.48;101806.84;5110803;28;20049;-32
2022/04/10 02:33:46;;;;;;;8.63;1.27;;;;;;;5.53;96.27;101815.16;5111341;28;20048;-26
2022/04/10 02:36:16;;;;;;;6.53;1.33;;;;;;;5.51;95.61;101804.31;5110282;28;20485;-26
2022/04/10 02:38:44;;;;;;;8.02;1.45;;;;;;;5.50;94.96;101810.09;5109160;28;20066;-25
2022/04/10 02:41:12;;;;;;;7.20;0.98;;;;;;;5.49;94.45;101814.78;5111744;28;20039;-27
2022/04/10 02:43:40;;;;;;;4.78;1.10;;;;;;;5.48;94.02;101809.50;5110606;28;20051;-27
2022/04/10 02:46:08;;;;;;;7.15;1.00;;;;;;;5.43;93.58;101812.97;5109784;28;20047;-29
2022/04/10 02:48:42;;;;;;;7.72;1.05;;;;;;;5.40;92.89;101810.69;5099688;28;20470;-25
2022/04/10 02:51:16;;;;;;;9.05;1.17;;;;;;;5.40;92.97;101807.94;5109445;28;20051;-32
2022/04/10 02:53:45;;;;;;;8.05;1.27;;;;;;;5.39;93.22;101811.81;5111294;27;20304;-33
2022/04/10 02:56:12;;;;;;;6.57;1.20;;;;;;;5.38;92.53;101814.81;5111181;28;20543;-27
2022/04/10 02:58:41;;;;;;;6.85;1.23;;;;;;;5.36;92.33;101830.81;5108580;28;20048;-26
2022/04/10 03:01:09;;;;;;;9.20;1.33;;;;;;;5.35;91.57;101818.06;5111296;28;20052;-30
2022/04/10 03:03:40;;;;;;;7.68;1.10;;;;;;;5.33;91.68;101818.31;5106097;28;20062;-26
2022/04/10 03:06:07;;;;;;;5.68;1.10;;;;;;;5.31;91.42;101822.38;5110468;28;20054;-29
2022/04/10 03:08:36;;;;;;;6.47;1.00;;;;;;;5.32;91.06;101824.06;5110806;28;20043;-28
2022/04/10 03:11:04;;;;;;;4.80;0.77;;;;;;;5.30;90.84;101826.22;5106007;28;20078;-26
2022/04/10 03:13:33;;;;;;;5.30;1.02;;;;;;;5.29;90.14;101832.84;5109932;28;20040;-29
2022/04/10 03:16:02;;;;;;;4.20;0.80;;;;;;;5.27;90.56;101829.47;5109700;28;20473;-26
2022/04/10 03:18:31;;;;;;;4.20;1.00;;;;;;;5.28;90.50;101831.16;5109745;28;20142;-25
2022/04/10 03:20:59;;;;;;;5.78;0.82;;;;;;;5.26;90.84;101834.16;5110508;28;20054;-26
2022/04/10 03:23:28;;;;;;;5.18;0.90;;;;;;;5.27;90.77;101840.53;5109577;28;20043;-29
2022/04/10 03:25:57;;;;;;;7.28;1.08;;;;;;;5.27;90.30;101841.38;5108576;28;20043;-29
2022/04/10 03:28:25;;;;;;;7.05;1.67;;;;;;;5.28;90.12;101847.78;5111134;28;20127;-23
2022/04/10 03:30:54;;;;;;;7.13;1.20;;;;;;;5.33;91.21;101847.91;5110830;28;20048;-26
2022/04/10 03:33:22;;;;;;;10.65;1.65;;;;;;;5.36;93.19;101853.81;5108584;28;20503;-31
2022/04/10 03:35:50;;;;;;;7.40;1.05;;;;;;;5.34;95.65;101861.50;5110838;28;20043;-26
2022/04/10 03:38:18;;;;;;;5.18;1.20;;;;;;;5.28;97.01;101853.31;5110788;28;20127;-27
2022/04/10 03:40:46;;;;;;;5.75;0.95;;;;;;;5.24;97.75;101852.09;5108482;28;20143;-28
2022/04/10 03:43:17;;;;;;;6.60;1.05;;;;;;;5.20;98.80;101849.78;5109352;28;20112;-25
2022/04/10 03:45:45;;;;;;;8.75;1.08;;;;;;;5.17;99.92;101853.06;5110613;28;20040;-30
2022/04/10 03:48:13;;;;;;;10.43;1.33;;;;;;;5.18;100.00;101852.00;5108389;28;20622;-30
2022/04/10 03:50:42;;;;;;;7.18;1.10;;;;;;;5.19;100.00;101856.44;5098188;28;20071;-29
2022/04/10 03:53:11;;;;;;;5.63;1.55;;;;;;;5.20;100.00;101858.09;5109356;28;20067;-29
2022/04/10 03:55:39;;;;;;;6.93;1.20;;;;;;;5.18;100.00;101865.81;5108537;28;20112;-26
2022/04/10 03:58:07;;;;;;;7.28;1.20;;;;;;;5.16;100.00;101867.13;5110802;28;20120;-27
2022/04/10 04:00:37;;;;;;;5.55;0.90;;;;;;;5.13;100.00;101874.00;5110541;28;20051;-25
2022/04/10 04:03:10;;;;;;;6.22;1.08;;;;;;;5.11;100.00;101881.69;5108615;28;20042;-25
2022/04/10 04:05:39;;;;;;;6.72;1.00;;;;;;;5.11;100.00;101880.84;5109091;28;20048;-27
2022/04/10 04:08:11;;;;;;;5.43;1.27;;;;;;;5.12;100.00;101890.81;5108760;28;20079;-26
2022/04/10 04:10:40;;;;;;;6.65;0.80;;;;;;;5.11;100.00;101886.38;5109711;28;20385;-24
2022/04/10 04:13:08;;;;;;;5.35;0.80;;;;;;;5.02;100.00;101902.44;5113067;28;20043;-29
2022/04/10 04:15:37;;;;;;;5.38;0.75;;;;;;;4.96;100.00;101892.34;5111951;28;20051;-31
2022/04/10 04:18:06;;;;;;;4.13;0.65;;;;;;;4.92;100.00;101902.19;5114106;28;20092;-31
2022/04/10 04:20:35;;;;;;;5.22;1.08;;;;;;;4.87;100.00;101907.59;5112856;28;20062;-26
2022/04/10 04:23:05;;;;;;;4.63;0.50;;;;;;;4.87;100.00;101913.13;5110613;28;20134;-27
2022/04/10 04:25:33;;;;;;;5.30;1.08;;;;;;;4.87;100.00;101909.50;5112985;28;20138;-26
2022/04/10 04:28:02;;;;;;;6.63;1.00;;;;;;;4.88;100.00;101934.16;5112880;28;20104;-28
2022/04/10 04:30:30;;;;;;;5.72;0.65;;;;;;;4.89;100.00;101940.53;5104505;28;20052;-29
2022/04/10 04:33:03;;;;;;;5.43;0.88;;;;;;;4.85;100.00;101932.72;5112890;28;20066;-31
2022/04/10 04:35:32;;;;;;;3.47;0.80;;;;;;;4.83;100.00;101932.09;5112809;28;20350;-27
2022/04/10 04:38:01;;;;;;;5.90;1.02;;;;;;;4.82;100.00;101932.34;5111905;28;20047;-29
2022/04/10 04:40:30;;;;;;;6.78;1.05;;;;;;;4.79;100.00;101928.16;5112357;28;20390;-27
2022/04/10 04:42:58;;;;;;;4.45;1.00;;;;;;;4.79;100.00;101930.91;5112105;28;20075;-27
2022/04/10 04:45:29;;;;;;;5.35;0.88;;;;;;;4.77;100.00;101935.81;5112362;28;20059;-27
2022/04/10 04:48:11;;;;;;;6.55;1.10;;;;;;;4.76;100.00;101934.13;5112292;28;20040;-26
2022/04/10 04:50:39;;;;;;;5.32;0.70;;;;;;;4.75;100.00;101931.59;5111082;28;20104;-28
2022/04/10 04:53:08;;;;;;;5.80;0.77;;;;;;;4.72;100.00;101932.91;5113013;28;20476;-33
2022/04/10 04:55:36;;;;;;;4.20;1.00;;;;;;;4.72;100.00;101937.59;5111637;28;20048;-32
2022/04/10 04:58:05;;;;;;;4.88;0.88;;;;;;;4.70;100.00;101945.28;5111168;28;20063;-25
2022/04/10 05:00:33;;;;;;;3.65;0.52;;;;;;;4.66;100.00;101933.84;5113440;28;20105;-31
2022/04/10 05:03:03;;;;;;;3.67;0.65;;;;;;;4.65;100.00;101939.59;5111999;28;20044;-25
2022/04/10 05:05:32;;;;;;;3.88;0.63;;;;;;;4.63;100.00;101939.00;5111461;28;20058;-26
2022/04/10 05:08:10;;;;;;;4.63;0.60;;;;;;;4.61;100.00;101960.50;5113136;28;20086;-31
2022/04/10 05:10:38;;;;;;;8.35;1.00;;;;;;;4.64;100.00;101943.44;5113532;28;20047;-28
2022/04/10 05:13:08;;;;;;;4.93;0.55;;;;;;;4.58;100.00;101939.72;5112432;28;20037;-26
2022/04/10 05:15:37;;;;;;;3.75;0.70;;;;;;;4.49;100.00;101936.41;5111861;28;20070;-30
2022/04/10 05:18:06;;;;;;;1.85;0.50;;;;;;;4.44;100.00;101941.78;5111988;28;20052;-29
2022/04/10 05:20:38;;;;;;;3.15;1.10;;;;;;;4.38;100.00;101942.72;5111476;28;20043;-34
2022/04/10 05:23:15;;;;;;;5.18;1.00;;;;;;;4.37;100.00;101960.38;5111548;28;20044;-29
2022/04/10 05:25:44;;;;;;;5.20;0.60;;;;;;;4.40;100.00;101951.59;5111158;28;20048;-30
2022/04/10 05:28:12;;;;;;;4.25;0.90;;;;;;;4.45;100.00;101960.06;5111562;28;20044;-27
2022/04/10 05:30:40;;;;;;;10.50;1.25;;;;;;;4.49;100.00;101961.28;5112906;28;20492;-35
2022/04/10 05:33:14;;;;;;;7.95;1.20;;;;;;;4.54;100.00;101959.75;5110784;28;20044;-30
2022/04/10 05:35:43;;;;;;;6.93;1.17;;;;;;;4.58;100.00;101970.13;5110510;28;20061;-30
2022/04/10 05:38:12;;;;;;;6.93;1.00;;;;;;;4.61;100.00;101971.53;5110295;28;20071;-29
2022/04/10 05:40:40;;;;;;;7.28;1.00;;;;;;;4.65;100.00;101975.53;5104522;28;20585;-27
2022/04/10 05:43:07;;;;;;;9.65;1.08;;;;;;;4.72;100.00;101973.53;5111396;28;20599;-25
2022/04/10 05:45:36;;;;;;;10.07;1.10;;;;;;;4.82;100.00;101976.56;5109222;28;20241;-25
2022/04/10 05:48:05;;;;;;;9.07;1.13;;;;;;;4.91;100.00;101969.66;5098181;28;20565;-28
2022/04/10 05:50:34;;;;;;;8.48;1.10;;;;;;;4.99;100.00;101977.63;5109996;28;20048;-30
2022/04/10 05:53:04;;;;;;;8.45;1.17;;;;;;;5.03;100.00;101980.75;5107460;28;20048;-31
2022/04/10 05:55:36;;;;;;;6.53;1.13;;;;;;;5.07;100.00;101984.75;5108474;28;20108;-28
2022/04/10 05:58:09;;;;;;;5.20;0.88;;;;;;;5.08;100.00;101992.81;5109368;28;20408;-27
2022/04/10 06:00:38;;;;;;;6.85;1.15;;;;;;;5.10;100.00;101995.34;5108741;28;20412;-32
2022/04/10 06:03:16;;;;;;;4.57;0.80;;;;;;;5.09;100.00;102010.25;5109901;28;20035;-30
2022/04/10 06:05:46;;;;;;;5.15;0.77;;;;;;;5.11;100.00;102006.19;5109790;28;20047;-29
2022/04/10 06:08:22;;;;;;;5.25;0.98;;;;;;;5.14;100.00;102004.88;5110038;28;20076;-28
2022/04/10 06:10:50;;;;;;;5.75;1.10;;;;;;;5.17;100.00;102008.00;5109639;28;20059;-32
2022/04/10 06:13:20;;;;;;;5.70;0.90;;;;;;;5.21;100.00;102002.81;5109460;28;20039;-27
2022/04/10 06:15:53;;;;;;;6.78;1.20;;;;;;;5.26;100.00;102007.66;5109153;28;20039;-26
2022/04/10 06:18:22;;;;;;;5.30;0.98;;;;;;;5.31;100.00;102010.56;5110919;28;20500;-29
2022/04/10 06:20:50;;;;;;;4.25;1.00;;;;;;;5.37;100.00;102017.94;5109519;28;20382;-25
2022/04/10 06:23:21;;;;;;;5.03;0.90;;;;;;;5.42;100.00;102013.34;5108603;28;20055;-34
2022/04/10 06:25:53;;;;;;;6.70;1.20;;;;;;;5.49;100.00;102021.56;5109231;28;20102;-30
2022/04/10 06:28:22;;;;;;;4.63;0.80;;;;;;;5.52;100.00;102016.41;5109917;28;20055;-32
2022/04/10 06:30:50;;;;;;;5.35;0.73;;;;;;;5.59;100.00;102021.00;5108365;28;20059;-29
2022/04/10 06:33:23;;;;;;;8.95;1.20;;;;;;;5.67;100.00;102018.72;5108854;28;20051;-33
2022/04/10 06:35:54;;;;;;;8.90;1.35;;;;;;;5.76;100.00;102022.84;5108670;28;20055;-30
2022/04/10 06:38:22;;;;;;;4.97;1.08;;;;;;;5.85;100.00;102021.38;5110368;27;20544;-27
2022/04/10 06:40:59;;;;;;;7.18;1.20;;;;;;;5.98;100.00;102033.38;5109090;28;20557;-30
2022/04/10 06:43:27;;;;;;;7.75;1.10;;;;;;;6.07;100.00;102029.13;5108652;28;20128;-30
2022/04/10 06:46:13;;;;;;;8.73;1.05;;;;;;;6.16;100.00;102019.38;5109384;28;20051;-29
2022/04/10 06:48:51;;;;;;;4.22;0.90;;;;;;;6.35;100.00;102031.19;5108209;28;20051;-25
2022/04/10 06:51:21;;;;;;;8.52;1.00;;;;;;;6.57;100.00;102035.88;5109985;28;20377;-28
2022/04/10 06:53:49;;;;;;;6.63;1.10;;;;;;;6.85;100.00;102037.81;5105805;28;20043;-28
2022/04/10 06:56:19;;;;;;;5.25;0.90;;;;;;;7.23;100.00;102036.34;5108380;28;20059;-24
2022/04/10 06:58:47;;;;;;;6.57;1.20;;;;;;;7.67;100.00;102048.56;5109716;28;20049;-28
2022/04/10 07:01:15;;;;;;;7.63;1.17;;;;;;;8.18;98.22;102041.94;5108540;28;20055;-29
2022/04/10 07:03:44;;;;;;;5.35;1.00;;;;;;;8.73;96.02;102040.25;5107839;28;20147;-30
2022/04/10 07:06:14;;;;;;;4.50;0.90;;;;;;;9.29;94.35;102042.59;5108847;28;20114;-28
2022/04/10 07:08:42;;;;;;;7.95;0.90;;;;;;;9.93;91.32;102053.81;5110019;28;20117;-30
2022/04/10 07:11:11;;;;;;;6.90;1.23;;;;;;;10.45;87.64;102055.91;5107595;28;20542;-27
2022/04/10 07:13:41;;;;;;;4.70;0.95;;;;;;;10.94;83.13;102044.44;5108234;28;20136;-31
2022/04/10 07:16:09;;;;;;;3.88;0.80;;;;;;;11.53;81.14;102053.28;5108744;28;20048;-29
2022/04/10 07:18:37;;;;;;;8.48;1.10;;;;;;;12.18;78.47;102051.69;5107744;28;20044;-32
2022/04/10 07:21:11;;;;;;;4.22;0.90;;;;;;;12.76;74.15;102047.38;5108563;28;20570;-32
2022/04/10 07:23:45;;;;;;;3.15;0.95;;;;;;;13.29;70.97;102047.72;5108413;28;20059;-30
2022/04/10 07:26:22;;;;;;;4.47;1.13;;;;;;;13.86;67.89;102043.44;5108145;28;20079;-30
2022/04/10 07:28:57;;;;;;;6.45;1.30;;;;;;;14.36;64.85;102052.56;5108585;28;20082;-31
2022/04/10 07:31:27;;;;;;;5.05;0.90;;;;;;;14.81;63.53;102060.50;5108855;28;20052;-32
2022/04/10 07:33:55;;;;;;;5.72;0.98;;;;;;;15.21;60.96;102063.94;5107593;28;20055;-33
2022/04/10 07:36:55;;;;;;;5.70;0.90;;;;;;;15.52;59.02;102068.03;5064123;28;20058;-27
2022/04/10 07:39:25;;;;;;;6.10;1.15;;;;;;;15.59;57.71;102070.47;5107019;28;20063;-32
2022/04/10 07:42:03;;;;;;;3.97;0.80;;;;;;;15.78;56.90;102079.78;5107498;28;20048;-30
2022/04/10 07:44:54;;;;;;;8.20;0.90;;;;;;;15.91;54.97;102078.19;5108099;28;20043;-27
2022/04/10 07:47:25;;;;;;;5.13;1.08;;;;;;;15.81;53.85;102078.31;5111335;28;20588;-25
2022/04/10 07:49:54;;;;;;;4.47;0.93;;;;;;;16.02;54.46;102088.13;5112559;28;20046;-27
2022/04/10 07:52:23;;;;;;;6.22;0.90;;;;;;;16.34;52.89;102097.75;5113886;28;20063;-29
2022/04/10 07:54:59;;;;;;;5.72;1.08;;;;;;;16.67;51.98;102085.34;5109876;28;20051;-29
2022/04/10 07:57:27;;;;;;;3.80;1.13;;;;;;;16.86;50.04;102097.38;5111926;28;20162;-33
2022/04/10 07:59:56;;;;;;;4.82;0.88;;;;;;;16.93;49.38;102098.94;5112209;28;20062;-31
2022/04/10 08:02:39;;;;;;;6.53;1.15;;;;;;;17.10;48.75;102104.81;5113221;28;20051;-30
2022/04/10 08:05:20;;;;;;;5.85;0.90;;;;;;;17.33;48.45;102103.75;5112063;28;20080;-29
2022/04/10 08:07:59;;;;;;;3.53;0.80;;;;;;;17.76;47.25;102106.25;5111824;28;20394;-33
2022/04/10 08:10:28;;;;;;;5.05;1.00;;;;;;;18.06;45.70;102101.84;5113547;28;20481;-32
2022/04/10 08:12:58;;;;;;;3.13;0.80;;;;;;;18.23;44.70;102105.63;5113557;28;20048;-34
2022/04/10 08:15:27;;;;;;;5.35;0.80;;;;;;;18.52;44.91;102107.19;5112357;28;20504;-28
2022/04/10 08:17:56;;;;;;;4.78;1.20;;;;;;;19.01;43.93;102106.13;5112567;28;20051;-28
2022/04/10 08:20:24;;;;;;;3.60;0.80;;;;;;;19.35;42.37;102107.44;5113455;28;20609;-29
2022/04/10 08:22:53;;;;;;;4.18;0.82;;;;;;;19.53;41.46;102109.19;5111337;28;20844;-32
2022/04/10 08:25:23;;;;;;;5.40;0.98;;;;;;;19.63;41.13;102108.03;5112716;27;20056;-28
2022/04/10 08:27:51;;;;;;;4.63;1.23;;;;;;;19.78;41.06;102113.22;5112994;28;20065;-28
2022/04/10 08:30:19;;;;;;;4.95;1.05;;;;;;;19.87;39.50;102109.22;5112426;28;20066;-29
2022/04/10 08:32:49;;;;;;;3.55;0.88;;;;;;;19.85;39.78;102114.38;5113213;28;20043;-33
2022/04/10 08:35:16;;;;;;;3.42;0.70;;;;;;;19.85;39.15;102120.06;5113575;28;20036;-29
2022/04/10 08:37:44;;;;;;;4.10;0.90;;;;;;;19.89;39.34;102111.72;5114077;28;20052;-33
2022/04/10 08:40:12;;;;;;;4.57;0.77;;;;;;;20.03;39.19;102117.22;5113142;28;20059;-31
2022/04/10 08:42:40;;;;;;;3.85;0.70;;;;;;;20.22;39.24;102127.06;5111916;28;20052;-32
2022/04/10 08:45:09;;;;;;;6.80;0.98;;;;;;;20.46;38.29;102131.41;5113156;28;20386;-30
2022/04/10 08:47:39;;;;;;;3.90;1.00;;;;;;;20.59;38.10;102131.22;5113029;28;20040;-31
2022/04/10 08:50:10;;;;;;;3.05;0.90;;;;;;;20.64;37.03;102133.91;5110350;28;20054;-30
2022/04/10 08:52:38;;;;;;;4.90;1.20;;;;;;;20.70;37.46;102137.41;5112235;28;20407;-29
2022/04/10 08:55:07;;;;;;;3.85;0.75;;;;;;;20.87;37.66;102130.84;5110980;28;20054;-30
2022/04/10 08:57:34;;;;;;;3.97;0.93;;;;;;;21.07;36.97;102132.09;5111519;28;20149;-32
2022/04/10 09:00:03;;;;;;;4.65;1.20;;;;;;;21.15;36.67;102136.94;5112570;28;20224;-36
2022/04/10 09:02:31;;;;;;;4.18;0.90;;;;;;;21.34;36.75;102123.19;5112358;28;20043;-32
2022/04/10 09:04:58;;;;;;;4.28;1.10;;;;;;;21.58;35.63;102143.25;5111670;28;20204;-26
2022/04/10 09:07:27;;;;;;;6.22;1.00;;;;;;;21.66;35.61;102135.84;5112202;28;20044;-36
2022/04/10 09:09:57;;;;;;;3.80;0.90;;;;;;;21.78;35.40;102140.81;5112158;28;20047;-32
2022/04/10 09:12:25;;;;;;;5.45;0.93;;;;;;;21.93;35.33;102141.03;5111573;28;20099;-26
2022/04/10 09:15:03;;;;;;;5.22;1.00;;;;;;;22.14;34.51;102129.69;5112137;28;20071;-32
2022/04/10 09:17:30;;;;;;;6.70;1.10;;;;;;;22.33;35.01;102132.03;5111166;28;20040;-34
2022/04/10 09:20:00;;;;;;;4.50;0.82;;;;;;;22.42;34.58;102135.63;5112092;28;20039;-29
2022/04/10 09:22:33;;;;;;;6.95;1.10;;;;;;;22.31;34.51;102140.09;5112172;28;20055;-32
2022/04/10 09:25:07;;;;;;;4.82;1.30;;;;;;;22.12;34.20;102145.44;5111209;28;20057;-30
2022/04/10 09:27:37;;;;;;;4.05;0.85;;;;;;;22.02;34.44;102146.66;5112119;28;20047;-31
2022/04/10 09:30:06;;;;;;;5.35;0.93;;;;;;;22.01;34.29;102139.31;5111420;28;20516;-29
2022/04/10 09:32:39;;;;;;;6.10;0.95;;;;;;;21.98;33.78;102145.69;5110726;28;20051;-37
2022/04/10 09:35:07;;;;;;;4.97;1.00;;;;;;;22.03;34.04;102150.34;5112012;28;20039;-32
2022/04/10 09:37:45;;;;;;;4.68;1.35;;;;;;;22.09;33.11;102151.81;5111996;28;20389;-27
2022/04/10 09:40:28;;;;;;;4.43;1.20;;;;;;;22.13;32.60;102153.63;5072605;28;1089139;-28
2022/04/10 09:43:00;;;;;;;5.90;1.08;;;;;;;22.20;33.67;102153.88;5112518;28;20055;-29
2022/04/10 09:45:38;;;;;;;4.35;0.90;;;;;;;22.42;33.70;102161.22;5112203;28;20048;-29
2022/04/10 09:48:23;;;;;;;4.38;1.08;;;;;;;22.51;32.37;102153.44;5112556;28;20497;-30
2022/04/10 09:50:53;;;;;;;3.63;0.80;;;;;;;22.56;32.76;102158.09;5112420;28;20497;-27
2022/04/10 09:53:24;;;;;;;4.43;1.25;;;;;;;22.52;32.55;102163.66;5111333;28;20058;-27
2022/04/10 09:55:53;;;;;;;4.97;0.88;;;;;;;22.42;32.50;102154.69;5112091;28;20039;-28
2022/04/10 09:58:22;;;;;;;2.70;0.80;;;;;;;22.48;32.45;102159.00;5112377;28;20577;-27
2022/04/10 10:00:53;;;;;;;4.50;1.10;;;;;;;22.55;32.71;102160.13;5111372;27;20055;-31
2022/04/10 10:03:22;;;;;;;5.20;1.20;;;;;;;22.68;32.59;102167.50;5112196;28;20107;-34
2022/04/10 10:05:51;;;;;;;3.40;0.77;;;;;;;22.74;32.39;102173.00;5110752;28;20542;-27
2022/04/10 10:08:20;;;;;;;5.05;0.80;;;;;;;22.73;32.32;102163.63;5109782;28;20471;-29
2022/04/10 10:10:50;;;;;;;4.28;1.00;;;;;;;22.63;32.43;102173.41;5110963;28;20515;-27
2022/04/10 10:13:18;;;;;;;2.78;0.70;;;;;;;22.50;32.66;102168.84;5111442;28;20043;-27
2022/04/10 10:15:46;;;;;;;3.42;1.27;;;;;;;22.32;32.80;102168.19;5111289;28;20113;-27
2022/04/10 10:18:16;;;;;;;4.60;0.90;;;;;;;22.19;33.04;102174.13;5112109;27;20075;-27
2022/04/10 10:20:44;;;;;;;4.22;1.10;;;;;;;22.08;33.16;102170.03;5111014;28;20115;-29
2022/04/10 10:23:13;;;;;;;2.85;0.90;;;;;;;22.15;32.99;102171.16;5111750;28;20448;-28
2022/04/10 10:25:47;;;;;;;4.25;1.00;;;;;;;22.13;32.37;102167.00;5112332;28;20058;-27
2022/04/10 10:28:45;;;;;;;4.88;0.80;;;;;;;22.02;31.96;102172.25;5111160;28;20506;-35
2022/04/10 10:31:26;;;;;;;2.85;0.77;;;;;;;21.96;32.39;102167.94;5109958;28;20047;-27
2022/04/10 10:33:58;;;;;;;3.80;1.05;;;;;;;21.88;32.83;102178.16;5111855;28;20051;-28
2022/04/10 10:36:27;;;;;;;;;;;;;;;21.85;31.34;102170.31;5111633;28;20046;-30
2022/04/10 10:38:56;;;;;;;3.13;0.65;;;;;;;21.90;33.09;102172.16;5111417;28;20292;-37
2022/04/10 10:41:37;;;;;;;4.63;1.02;;;;;;;22.06;31.72;102178.06;5111345;28;20055;-28
2022/04/10 10:44:18;;;;;;;2.50;1.00;;;;;;;21.80;30.54;102169.69;5110729;28;20036;-30
2022/04/10 10:47:00;;;;;;;3.58;1.05;;;;;;;21.56;32.53;102170.34;5111191;28;20063;-33
2022/04/10 10:49:30;;;;;;;2.60;0.52;;;;;;;21.54;32.88;102167.84;5110124;28;20089;-28
2022/04/10 10:52:09;;;;;;;4.22;1.27;;;;;;;21.63;32.54;102173.47;5111600;28;20075;-30
2022/04/10 10:54:44;;;;;;;2.13;0.80;;;;;;;21.62;32.58;102175.47;5111399;28;20055;-28
2022/04/10 10:57:26;;;;;;;3.15;0.80;;;;;;;21.37;32.11;102184.16;5109732;28;20047;-30
2022/04/10 11:00:04;;;;;;;;;;;;;;;21.15;31.78;102177.50;5111476;28;20558;-28
2022/04/10 11:02:35;;;;;;;4.43;0.80;;;;;;;21.31;33.56;102183.50;5111588;28;19920;-29
2022/04/10 11:05:32;;;;;;;2.65;0.70;;;;;;;21.48;33.31;102179.72;5111085;28;20067;-28
2022/04/10 11:08:03;;;;;;;3.42;0.60;;;;;;;21.17;32.97;102177.16;5111382;28;20048;-32
2022/04/10 11:10:32;;;;;;;3.38;0.82;;;;;;;20.99;33.53;102173.53;5110606;28;20052;-29
2022/04/10 11:13:05;;;;;;;4.22;0.80;;;;;;;20.98;33.31;102177.56;5111673;28;20058;-35
2022/04/10 11:15:46;;;;;;;2.85;0.70;;;;;;;21.11;32.64;102176.50;5111410;28;20124;-28
2022/04/10 11:18:31;;;;;;;4.40;0.93;;;;;;;20.92;33.30;102170.38;5110542;28;20047;-28
2022/04/10 11:21:05;;;;;;;2.97;0.80;;;;;;;20.74;33.41;102178.13;5110332;28;20282;-28
2022/04/10 11:23:39;;;;;;;4.13;0.80;;;;;;;20.68;34.23;102175.78;5110319;28;20050;-28
2022/04/10 11:26:12;;;;;;;3.13;0.70;;;;;;;20.71;34.39;102167.44;5109558;28;20050;-28
2022/04/10 11:29:02;;;;;;;2.30;0.57;;;;;;;20.74;33.70;102172.44;5110810;28;20047;-34
2022/04/10 11:31:35;;;;;;;2.78;0.60;;;;;;;20.61;35.54;102164.94;5109815;28;20074;-29
2022/04/10 11:34:11;;;;;;;4.65;0.90;;;;;;;20.58;35.83;102162.78;5110906;28;20042;-27
2022/04/10 11:36:52;;;;;;;3.80;0.85;;;;;;;20.61;35.02;102160.09;5110752;28;20051;-27
2022/04/10 11:39:24;;;;;;;4.57;1.13;;;;;;;20.58;34.45;102162.78;5109975;28;20585;-33
2022/04/10 11:41:54;;;;;;;2.45;0.70;;;;;;;20.55;34.68;102157.78;5110469;28;20051;-28
2022/04/10 11:44:23;;;;;;;3.17;0.85;;;;;;;20.30;35.82;102148.94;5110729;28;20039;-26
2022/04/10 11:46:52;;;;;;;3.00;0.70;;;;;;;20.35;36.08;102156.44;5109963;28;20042;-29